Time;durP1;ratioP1;P1;durP2;ratioP2;P2;SDS_P1;SDS_P2;PMS_P1;PMS_P2;Temp;Humidity;BMP_temperature;BMP_pressure;BME280_temperature;BME280_humidity;BME280_pressure;Samples;Min_cycle;Max_cycle;Signal;HPM_P1;HPM_P2
2022/06/02 00:00:42;;;;;;;24.10;20.10;;;;;;;-128.00;-1.00;-1.00;100122;1299;1003692;-24
2022/06/02 00:03:18;;;;;;;13.50;10.60;;;;;;;-128.00;-1.00;-1.00;100166;1299;1004464;-24
2022/06/02 00:05:55;;;;;;;8.90;5.50;;;;;;;-128.00;-1.00;-1.00;100179;1299;1003844;-29
2022/06/02 00:08:24;;;;;;;5.30;4.80;;;;;;;-128.00;-1.00;-1.00;100169;1299;1003158;-25
2022/06/02 00:11:00;;;;;;;5.10;4.10;;;;;;;-128.00;-1.00;-1.00;100143;1299;1004261;-29
2022/06/02 00:13:36;;;;;;;6.00;3.40;;;;;;;-128.00;-1.00;-1.00;100179;1299;1003716;-29
2022/06/02 00:16:07;;;;;;;10.30;6.20;;;;;;;-128.00;-1.00;-1.00;100040;1299;1004294;-28
2022/06/02 00:18:41;;;;;;;7.10;4.90;;;;;;;-128.00;-1.00;-1.00;100145;1299;1002818;-26
2022/06/02 00:21:13;;;;;;;6.30;5.50;;;;;;;-128.00;-1.00;-1.00;100170;1299;1003754;-24
2022/06/02 00:23:49;;;;;;;5.40;4.90;;;;;;;-128.00;-1.00;-1.00;100185;1298;1003289;-26
2022/06/02 00:26:25;;;;;;;6.50;4.50;;;;;;;-128.00;-1.00;-1.00;100149;1299;1004715;-30
2022/06/02 00:28:59;;;;;;;4.20;3.90;;;;;;;-128.00;-1.00;-1.00;100158;1299;1003574;-26
2022/06/02 00:31:36;;;;;;;4.80;4.30;;;;;;;-128.00;-1.00;-1.00;100141;1299;1002714;-30
2022/06/02 00:34:08;;;;;;;4.70;3.90;;;;;;;-128.00;-1.00;-1.00;100153;1299;1003128;-30
2022/06/02 00:36:42;;;;;;;4.00;3.70;;;;;;;-128.00;-1.00;-1.00;100095;1299;1003203;-30
2022/06/02 00:39:11;;;;;;;5.00;4.20;;;;;;;-128.00;-1.00;-1.00;100183;1299;1003872;-28
2022/06/02 00:41:47;;;;;;;4.60;3.40;;;;;;;-128.00;-1.00;-1.00;100206;1298;1003836;-29
2022/06/02 00:44:23;;;;;;;5.10;3.20;;;;;;;-128.00;-1.00;-1.00;100160;1299;1003342;-29
2022/06/02 00:46:58;;;;;;;4.20;3.30;;;;;;;-128.00;-1.00;-1.00;100145;1299;1003244;-28
2022/06/02 00:49:34;;;;;;;3.00;2.50;;;;;;;-128.00;-1.00;-1.00;100121;1299;1003929;-29
2022/06/02 00:52:08;;;;;;;4.10;3.50;;;;;;;-128.00;-1.00;-1.00;100135;1299;1004109;-29
2022/06/02 00:59:59;;;;;;;8.80;3.90;;;;;;;-128.00;-1.00;-1.00;100154;1299;1003452;-25
2022/06/02 01:02:28;;;;;;;4.00;3.60;;;;;;;-128.00;-1.00;-1.00;100183;1299;1003267;-28
2022/06/02 01:05:00;;;;;;;5.80;3.30;;;;;;;-128.00;-1.00;-1.00;100191;1299;1004664;-25
2022/06/02 01:07:34;;;;;;;4.30;3.90;;;;;;;-128.00;-1.00;-1.00;100181;1299;1003793;-27
2022/06/02 01:10:08;;;;;;;6.40;3.60;;;;;;;-128.00;-1.00;-1.00;100191;1299;1003377;-28
2022/06/02 01:12:42;;;;;;;4.50;3.80;;;;;;;-128.00;-1.00;-1.00;100126;1299;1003050;-28
2022/06/02 01:15:11;;;;;;;5.30;3.60;;;;;;;-128.00;-1.00;-1.00;100157;1299;1003391;-29
2022/06/02 01:17:57;;;;;;;2.90;2.60;;;;;;;-128.00;-1.00;-1.00;100277;1298;1003762;-28
2022/06/02 01:20:34;;;;;;;3.40;3.10;;;;;;;-128.00;-1.00;-1.00;100130;1299;1004217;-30
2022/06/02 01:23:13;;;;;;;4.60;3.60;;;;;;;-128.00;-1.00;-1.00;100141;1299;1003156;-26
2022/06/02 01:25:53;;;;;;;5.70;4.20;;;;;;;-128.00;-1.00;-1.00;100177;1299;1004491;-25
2022/06/02 01:28:26;;;;;;;5.00;4.50;;;;;;;-128.00;-1.00;-1.00;100186;1299;1004847;-25
2022/06/02 01:30:56;;;;;;;3.00;2.70;;;;;;;-128.00;-1.00;-1.00;100168;1299;1004127;-28
2022/06/02 01:33:29;;;;;;;3.00;2.70;;;;;;;-128.00;-1.00;-1.00;100152;1299;1003296;-26
2022/06/02 01:36:02;;;;;;;3.40;2.90;;;;;;;-128.00;-1.00;-1.00;100132;1299;1004636;-26
2022/06/02 01:38:51;;;;;;;2.60;2.00;;;;;;;-128.00;-1.00;-1.00;100107;1299;1004292;-26
2022/06/02 01:41:25;;;;;;;3.70;2.60;;;;;;;-128.00;-1.00;-1.00;100198;1299;1003661;-25
2022/06/02 01:43:54;;;;;;;;;;;;;;;-128.00;-1.00;-1.00;100208;1299;1003130;-30
2022/06/02 01:46:31;;;;;;;2.60;2.30;;;;;;;-128.00;-1.00;-1.00;100183;1299;1003961;-30
2022/06/02 01:49:04;;;;;;;3.40;3.20;;;;;;;-128.00;-1.00;-1.00;100156;1299;1003776;-24
2022/06/02 01:51:40;;;;;;;3.50;2.90;;;;;;;-128.00;-1.00;-1.00;100095;1299;1003589;-24
2022/06/02 01:54:17;;;;;;;20.30;2.90;;;;;;;-128.00;-1.00;-1.00;100122;1299;1003545;-24
2022/06/02 01:56:49;;;;;;;10.50;3.40;;;;;;;-128.00;-1.00;-1.00;100134;1299;1003166;-30
2022/06/02 01:59:26;;;;;;;4.00;2.90;;;;;;;-128.00;-1.00;-1.00;100170;1299;1003787;-30
2022/06/02 02:02:06;;;;;;;4.30;3.30;;;;;;;-128.00;-1.00;-1.00;100144;1299;1003573;-27
2022/06/02 02:04:42;;;;;;;3.20;2.90;;;;;;;-128.00;-1.00;-1.00;100146;1299;1004232;-24
2022/06/02 02:07:13;;;;;;;3.50;2.80;;;;;;;-128.00;-1.00;-1.00;100166;1299;1004505;-26
2022/06/02 02:09:42;;;;;;;3.00;2.70;;;;;;;-128.00;-1.00;-1.00;100164;1299;1003573;-24
2022/06/02 02:12:18;;;;;;;2.40;2.00;;;;;;;-128.00;-1.00;-1.00;100197;1299;1003619;-23
2022/06/02 02:14:51;;;;;;;2.70;2.40;;;;;;;-128.00;-1.00;-1.00;100088;1300;1003268;-24
2022/06/02 02:17:44;;;;;;;3.30;2.50;;;;;;;-128.00;-1.00;-1.00;100162;1299;1004510;-25
2022/06/02 02:20:21;;;;;;;4.90;2.70;;;;;;;-128.00;-1.00;-1.00;100171;1299;1004530;-28
2022/06/02 02:22:54;;;;;;;5.40;3.20;;;;;;;-128.00;-1.00;-1.00;100203;1299;1003924;-29
2022/06/02 02:25:28;;;;;;;6.30;3.20;;;;;;;-128.00;-1.00;-1.00;100181;1299;1003624;-23
2022/06/02 02:30:36;;;;;;;3.70;3.20;;;;;;;-128.00;-1.00;-1.00;100181;1299;1004101;-24
2022/06/02 02:33:12;;;;;;;3.90;2.60;;;;;;;-128.00;-1.00;-1.00;100206;1299;1002968;-25
2022/06/02 02:35:45;;;;;;;4.20;3.80;;;;;;;-128.00;-1.00;-1.00;100177;1299;1003836;-28
2022/06/02 02:38:20;;;;;;;3.70;2.60;;;;;;;-128.00;-1.00;-1.00;100229;1299;1003585;-28
2022/06/02 02:40:52;;;;;;;3.20;2.90;;;;;;;-128.00;-1.00;-1.00;100152;1299;1003935;-28
2022/06/02 02:43:23;;;;;;;3.50;3.00;;;;;;;-128.00;-1.00;-1.00;100162;1299;1004132;-28
2022/06/02 02:45:55;;;;;;;3.70;3.10;;;;;;;-128.00;-1.00;-1.00;100153;1299;1003779;-28
2022/06/02 02:48:30;;;;;;;3.20;2.90;;;;;;;-128.00;-1.00;-1.00;100246;1299;1002739;-28
2022/06/02 02:51:21;;;;;;;3.10;2.50;;;;;;;-128.00;-1.00;-1.00;100166;1298;1003409;-28
2022/06/02 02:53:54;;;;;;;2.50;2.30;;;;;;;-128.00;-1.00;-1.00;100106;1299;1003258;-24
2022/06/02 02:56:29;;;;;;;3.80;2.90;;;;;;;-128.00;-1.00;-1.00;100244;1296;1004371;-24
2022/06/02 02:58:58;;;;;;;3.40;2.60;;;;;;;-128.00;-1.00;-1.00;100168;1299;1003103;-28
2022/06/02 03:01:31;;;;;;;4.40;4.00;;;;;;;-128.00;-1.00;-1.00;100162;1299;1003687;-25
2022/06/02 03:04:07;;;;;;;6.10;3.50;;;;;;;-128.00;-1.00;-1.00;100201;1299;1002830;-28
2022/06/02 03:06:39;;;;;;;4.30;3.40;;;;;;;-128.00;-1.00;-1.00;100054;1299;1004190;-28
2022/06/02 03:09:14;;;;;;;7.60;5.20;;;;;;;-128.00;-1.00;-1.00;100183;1299;1003160;-28
2022/06/02 03:11:50;;;;;;;6.70;6.00;;;;;;;-128.00;-1.00;-1.00;100103;1299;1004683;-29
2022/06/02 03:14:24;;;;;;;7.10;5.80;;;;;;;-128.00;-1.00;-1.00;100173;1299;1003864;-28
2022/06/02 03:17:05;;;;;;;7.80;5.40;;;;;;;-128.00;-1.00;-1.00;100158;1299;1002567;-27
2022/06/02 03:19:35;;;;;;;5.20;4.70;;;;;;;-128.00;-1.00;-1.00;100123;1299;1004218;-30
2022/06/02 03:22:13;;;;;;;6.10;4.90;;;;;;;-128.00;-1.00;-1.00;100143;1299;1004106;-28
2022/06/02 03:24:52;;;;;;;11.20;5.20;;;;;;;-128.00;-1.00;-1.00;100139;1299;1004376;-28
2022/06/02 03:27:41;;;;;;;5.30;4.00;;;;;;;-128.00;-1.00;-1.00;100176;1299;1004273;-24
2022/06/02 03:30:17;;;;;;;4.80;3.90;;;;;;;-128.00;-1.00;-1.00;100152;1299;1004762;-27
2022/06/02 03:32:52;;;;;;;5.50;4.80;;;;;;;-128.00;-1.00;-1.00;100140;1299;1003979;-24
2022/06/02 03:35:27;;;;;;;6.80;4.60;;;;;;;-128.00;-1.00;-1.00;100214;1299;1003794;-24
2022/06/02 03:37:59;;;;;;;7.10;5.50;;;;;;;-128.00;-1.00;-1.00;100076;1299;1004024;-28
2022/06/02 03:40:32;;;;;;;6.00;5.30;;;;;;;-128.00;-1.00;-1.00;100108;1301;1003197;-28
2022/06/02 03:43:01;;;;;;;5.40;4.80;;;;;;;-128.00;-1.00;-1.00;100230;1299;1003835;-28
2022/06/02 03:45:35;;;;;;;5.80;4.80;;;;;;;-128.00;-1.00;-1.00;100027;1299;1003739;-24
2022/06/02 03:48:08;;;;;;;8.80;5.20;;;;;;;-128.00;-1.00;-1.00;100131;1299;1004646;-28
2022/06/02 03:50:41;;;;;;;5.20;4.80;;;;;;;-128.00;-1.00;-1.00;100179;1299;1004509;-28
2022/06/02 03:53:14;;;;;;;5.20;3.50;;;;;;;-128.00;-1.00;-1.00;100181;1299;1003213;-28
2022/06/02 03:55:47;;;;;;;4.70;4.00;;;;;;;-128.00;-1.00;-1.00;100189;1299;1003301;-28
2022/06/02 03:58:17;;;;;;;;;;;;;;;-128.00;-1.00;-1.00;100236;1299;1003118;-28
2022/06/02 04:00:49;;;;;;;3.00;2.80;;;;;;;-128.00;-1.00;-1.00;100180;1299;1003191;-24
2022/06/02 04:03:22;;;;;;;4.80;3.30;;;;;;;-128.00;-1.00;-1.00;100121;1299;1003030;-24
2022/06/02 04:05:57;;;;;;;2.90;2.60;;;;;;;-128.00;-1.00;-1.00;100167;1299;1003633;-24
2022/06/02 04:08:35;;;;;;;3.40;2.50;;;;;;;-128.00;-1.00;-1.00;100149;1299;1003554;-24
2022/06/02 04:11:10;;;;;;;6.90;2.60;;;;;;;-128.00;-1.00;-1.00;100154;1298;1003851;-24
2022/06/02 04:13:46;;;;;;;2.80;2.50;;;;;;;-128.00;-1.00;-1.00;100157;1299;1004229;-24
2022/06/02 04:16:20;;;;;;;9.40;2.30;;;;;;;-128.00;-1.00;-1.00;99653;1299;1004257;-30
2022/06/02 04:19:01;;;;;;;6.70;3.20;;;;;;;-128.00;-1.00;-1.00;100262;1299;1003028;-30
2022/06/02 04:21:45;;;;;;;2.80;2.40;;;;;;;-128.00;-1.00;-1.00;100149;1299;1005052;-23
2022/06/02 04:24:21;;;;;;;9.20;2.90;;;;;;;-128.00;-1.00;-1.00;100087;1299;1003535;-30
2022/06/02 04:26:56;;;;;;;2.60;2.40;;;;;;;-128.00;-1.00;-1.00;100138;1299;1003956;-27
2022/06/02 04:29:32;;;;;;;3.40;2.20;;;;;;;-128.00;-1.00;-1.00;100178;1299;1003916;-29
2022/06/02 04:32:04;;;;;;;2.60;2.40;;;;;;;-128.00;-1.00;-1.00;100175;1299;1003206;-24
2022/06/02 04:34:38;;;;;;;2.70;2.50;;;;;;;-128.00;-1.00;-1.00;100182;1298;1004501;-24
2022/06/02 04:37:12;;;;;;;4.20;2.20;;;;;;;-128.00;-1.00;-1.00;100148;1299;1004436;-27
2022/06/02 04:39:45;;;;;;;5.50;1.80;;;;;;;-128.00;-1.00;-1.00;100087;1299;1004054;-24
2022/06/02 04:42:19;;;;;;;2.50;1.50;;;;;;;-128.00;-1.00;-1.00;100172;1299;1003687;-28
2022/06/02 04:45:06;;;;;;;11.20;3.10;;;;;;;-128.00;-1.00;-1.00;100196;1299;1003739;-28
2022/06/02 04:47:42;;;;;;;4.50;2.20;;;;;;;-128.00;-1.00;-1.00;100100;1298;1003276;-28
2022/06/02 04:50:15;;;;;;;2.70;2.40;;;;;;;-128.00;-1.00;-1.00;100166;1298;1003268;-24
2022/06/02 04:53:04;;;;;;;4.00;3.50;;;;;;;-128.00;-1.00;-1.00;100174;1299;1004305;-25
2022/06/02 04:55:41;;;;;;;3.60;2.90;;;;;;;-128.00;-1.00;-1.00;100107;1299;1004369;-28
2022/06/02 04:58:14;;;;;;;3.10;2.50;;;;;;;-128.00;-1.00;-1.00;100167;1296;1003485;-29
2022/06/02 05:00:48;;;;;;;3.30;3.00;;;;;;;-128.00;-1.00;-1.00;100204;1299;1003554;-26
2022/06/02 05:03:24;;;;;;;3.60;3.10;;;;;;;-128.00;-1.00;-1.00;100181;1299;1003813;-26
2022/06/02 05:05:57;;;;;;;4.60;3.80;;;;;;;-128.00;-1.00;-1.00;100181;1299;1003418;-24
2022/06/02 05:08:33;;;;;;;5.20;3.10;;;;;;;-128.00;-1.00;-1.00;100138;1299;1004758;-25
2022/06/02 05:11:12;;;;;;;14.30;4.20;;;;;;;-128.00;-1.00;-1.00;100137;1298;1002897;-30
2022/06/02 05:13:49;;;;;;;8.70;3.60;;;;;;;-128.00;-1.00;-1.00;100132;1299;1004424;-25
2022/06/02 05:16:38;;;;;;;4.60;3.50;;;;;;;-128.00;-1.00;-1.00;100316;1299;1004411;-26
2022/06/02 05:19:09;;;;;;;3.20;2.90;;;;;;;-128.00;-1.00;-1.00;100151;1299;1004100;-25
2022/06/02 05:21:42;;;;;;;3.50;2.80;;;;;;;-128.00;-1.00;-1.00;100148;1299;1003874;-30
2022/06/02 05:24:15;;;;;;;2.00;1.50;;;;;;;-128.00;-1.00;-1.00;100174;1299;1003473;-30
2022/06/02 05:26:50;;;;;;;3.40;3.10;;;;;;;-128.00;-1.00;-1.00;100159;1299;1003718;-29
2022/06/02 05:29:24;;;;;;;5.20;3.50;;;;;;;-128.00;-1.00;-1.00;100179;1299;1004068;-25
2022/06/02 05:31:58;;;;;;;4.80;2.50;;;;;;;-128.00;-1.00;-1.00;100181;1299;1003007;-25
2022/06/02 05:34:33;;;;;;;3.10;2.70;;;;;;;-128.00;-1.00;-1.00;100195;1299;1004471;-29
2022/06/02 05:37:09;;;;;;;8.80;2.40;;;;;;;-128.00;-1.00;-1.00;100134;1299;1004021;-25
2022/06/02 05:39:46;;;;;;;8.10;3.10;;;;;;;-128.00;-1.00;-1.00;100154;1299;1004576;-26
2022/06/02 05:42:16;;;;;;;5.10;2.40;;;;;;;-128.00;-1.00;-1.00;100158;1299;1003355;-27
2022/06/02 05:44:48;;;;;;;3.50;2.90;;;;;;;-128.00;-1.00;-1.00;100145;1299;1003359;-24
2022/06/02 05:47:21;;;;;;;6.40;2.10;;;;;;;-128.00;-1.00;-1.00;100012;1296;1002917;-26
2022/06/02 05:49:56;;;;;;;1.50;1.10;;;;;;;-128.00;-1.00;-1.00;100138;1299;1003623;-24
2022/06/02 05:52:29;;;;;;;2.00;1.50;;;;;;;-128.00;-1.00;-1.00;100022;1299;1002489;-29
2022/06/02 05:55:05;;;;;;;2.10;1.10;;;;;;;-128.00;-1.00;-1.00;100168;1299;1003962;-25
2022/06/02 05:57:43;;;;;;;1.20;1.00;;;;;;;-128.00;-1.00;-1.00;100130;1299;1003697;-25
2022/06/02 06:00:20;;;;;;;1.90;1.40;;;;;;;-128.00;-1.00;-1.00;100153;1299;1003587;-26
2022/06/02 06:02:53;;;;;;;3.30;1.40;;;;;;;-128.00;-1.00;-1.00;100169;1299;1004364;-31
2022/06/02 06:05:28;;;;;;;1.50;1.00;;;;;;;-128.00;-1.00;-1.00;100170;1299;1004056;-29
2022/06/02 06:08:06;;;;;;;2.00;1.60;;;;;;;-128.00;-1.00;-1.00;100121;1299;1003475;-29
2022/06/02 06:10:49;;;;;;;1.00;0.80;;;;;;;-128.00;-1.00;-1.00;100179;1299;1003172;-25
2022/06/02 06:13:21;;;;;;;3.40;1.10;;;;;;;-128.00;-1.00;-1.00;100058;1299;1004277;-29
2022/06/02 06:15:54;;;;;;;1.40;0.90;;;;;;;-128.00;-1.00;-1.00;100129;1299;1004429;-25
2022/06/02 06:18:30;;;;;;;1.20;0.80;;;;;;;-128.00;-1.00;-1.00;100157;1299;1002959;-24
2022/06/02 06:21:23;;;;;;;3.10;1.00;;;;;;;-128.00;-1.00;-1.00;100100;1299;1004029;-29
2022/06/02 06:24:03;;;;;;;1.40;1.10;;;;;;;-128.00;-1.00;-1.00;99421;1299;1003660;-25
2022/06/02 06:26:35;;;;;;;0.50;0.40;;;;;;;-128.00;-1.00;-1.00;100168;1299;1004578;-27
2022/06/02 06:29:11;;;;;;;1.20;0.80;;;;;;;-128.00;-1.00;-1.00;100122;1299;1003803;-29
2022/06/02 06:31:45;;;;;;;1.80;0.80;;;;;;;-128.00;-1.00;-1.00;100182;1299;1003147;-25
2022/06/02 06:34:16;;;;;;;2.70;0.90;;;;;;;-128.00;-1.00;-1.00;100213;1299;1003825;-25
2022/06/02 06:36:52;;;;;;;0.50;0.40;;;;;;;-128.00;-1.00;-1.00;100162;1299;1003254;-29
2022/06/02 06:39:44;;;;;;;2.30;1.20;;;;;;;-128.00;-1.00;-1.00;100118;1299;1004622;-26
2022/06/02 06:42:16;;;;;;;1.50;0.70;;;;;;;-128.00;-1.00;-1.00;100141;1299;1003858;-29
2022/06/02 06:44:53;;;;;;;6.90;1.50;;;;;;;-128.00;-1.00;-1.00;100158;1299;1004768;-29
2022/06/02 06:47:24;;;;;;;0.60;0.60;;;;;;;-128.00;-1.00;-1.00;100180;1298;1003648;-28
2022/06/02 06:49:55;;;;;;;1.30;0.80;;;;;;;-128.00;-1.00;-1.00;100187;1299;1003590;-25
2022/06/02 06:52:28;;;;;;;0.60;0.30;;;;;;;-128.00;-1.00;-1.00;100167;1299;1003998;-28
2022/06/02 06:55:01;;;;;;;1.00;0.60;;;;;;;-128.00;-1.00;-1.00;100134;1299;1003322;-28
2022/06/02 06:57:35;;;;;;;0.70;0.40;;;;;;;-128.00;-1.00;-1.00;100136;1299;1003416;-28
2022/06/02 07:00:08;;;;;;;1.00;0.30;;;;;;;-128.00;-1.00;-1.00;100164;1299;1004713;-28
2022/06/02 07:02:40;;;;;;;0.10;0.10;;;;;;;-128.00;-1.00;-1.00;100077;1299;1003866;-28
2022/06/02 07:05:12;;;;;;;3.80;0.80;;;;;;;-128.00;-1.00;-1.00;100160;1299;1004140;-24
2022/06/02 07:07:48;;;;;;;2.50;0.40;;;;;;;-128.00;-1.00;-1.00;100270;1299;1005239;-30
2022/06/02 07:10:27;;;;;;;1.30;0.30;;;;;;;-128.00;-1.00;-1.00;100153;1299;1004055;-26
2022/06/02 07:13:05;;;;;;;0.70;0.40;;;;;;;-128.00;-1.00;-1.00;100172;1299;1003828;-28
2022/06/02 07:15:41;;;;;;;0.50;0.30;;;;;;;-128.00;-1.00;-1.00;100109;1299;1003519;-27
2022/06/02 07:18:14;;;;;;;0.50;0.40;;;;;;;-128.00;-1.00;-1.00;100143;1299;1003242;-25
2022/06/02 07:20:48;;;;;;;0.60;0.50;;;;;;;-128.00;-1.00;-1.00;100137;1299;1003083;-28
2022/06/02 07:23:24;;;;;;;0.50;0.40;;;;;;;-128.00;-1.00;-1.00;100187;1299;1004137;-25
2022/06/02 07:26:04;;;;;;;0.50;0.40;;;;;;;-128.00;-1.00;-1.00;100231;1299;1003898;-27
2022/06/02 07:28:41;;;;;;;1.00;0.50;;;;;;;-128.00;-1.00;-1.00;100175;1299;1003903;-30
2022/06/02 07:31:20;;;;;;;1.00;0.40;;;;;;;-128.00;-1.00;-1.00;99947;1299;1003187;-26
2022/06/02 07:33:56;;;;;;;2.50;0.40;;;;;;;-128.00;-1.00;-1.00;100172;1299;1003933;-30
2022/06/02 07:36:32;;;;;;;1.40;0.60;;;;;;;-128.00;-1.00;-1.00;100145;1299;1003732;-30
2022/06/02 07:39:08;;;;;;;1.60;0.50;;;;;;;-128.00;-1.00;-1.00;100167;1299;1003850;-24
2022/06/02 07:41:54;;;;;;;1.20;0.30;;;;;;;-128.00;-1.00;-1.00;100119;1299;1003748;-28
2022/06/02 07:44:29;;;;;;;0.50;0.30;;;;;;;-128.00;-1.00;-1.00;100057;1299;1004270;-28
2022/06/02 07:47:05;;;;;;;0.50;0.40;;;;;;;-128.00;-1.00;-1.00;100164;1299;1003647;-24
2022/06/02 07:49:36;;;;;;;1.90;0.40;;;;;;;-128.00;-1.00;-1.00;100144;1299;1003623;-28
2022/06/02 07:52:23;;;;;;;1.40;0.30;;;;;;;-128.00;-1.00;-1.00;100119;1299;1004177;-24
2022/06/02 07:55:10;;;;;;;0.90;0.30;;;;;;;-128.00;-1.00;-1.00;100152;1299;1003763;-28
2022/06/02 07:57:46;;;;;;;1.20;0.40;;;;;;;-128.00;-1.00;-1.00;100147;1299;1003919;-30
2022/06/02 08:00:16;;;;;;;0.90;0.30;;;;;;;-128.00;-1.00;-1.00;100180;1298;1003585;-30
2022/06/02 08:03:08;;;;;;;0.20;0.20;;;;;;;-128.00;-1.00;-1.00;100224;1299;1003622;-26
2022/06/02 08:05:42;;;;;;;9.10;0.40;;;;;;;-128.00;-1.00;-1.00;100062;1299;1002833;-26
2022/06/02 08:08:17;;;;;;;0.70;0.30;;;;;;;-128.00;-1.00;-1.00;100159;1299;1003570;-26
2022/06/02 08:10:50;;;;;;;0.40;0.40;;;;;;;-128.00;-1.00;-1.00;100107;1299;1004324;-27
2022/06/02 08:13:24;;;;;;;4.20;0.40;;;;;;;-128.00;-1.00;-1.00;100165;1297;1003142;-26
2022/06/02 08:15:58;;;;;;;0.80;0.50;;;;;;;-128.00;-1.00;-1.00;100169;1299;1003044;-29
2022/06/02 08:18:32;;;;;;;4.20;0.50;;;;;;;-128.00;-1.00;-1.00;100067;1299;1003984;-25
2022/06/02 08:23:49;;;;;;;8.50;2.60;;;;;;;-128.00;-1.00;-1.00;100074;1299;1004008;-25
2022/06/02 08:26:26;;;;;;;3.80;1.10;;;;;;;-128.00;-1.00;-1.00;100146;1299;1004072;-24
2022/06/02 08:29:01;;;;;;;0.60;0.30;;;;;;;-128.00;-1.00;-1.00;100156;1299;1003762;-28
2022/06/02 08:31:30;;;;;;;1.00;0.50;;;;;;;-128.00;-1.00;-1.00;100198;1299;1003182;-24
2022/06/02 08:34:05;;;;;;;4.80;1.20;;;;;;;-128.00;-1.00;-1.00;100190;1298;1003618;-24
2022/06/02 08:36:43;;;;;;;0.40;0.40;;;;;;;-128.00;-1.00;-1.00;100176;1299;1004574;-28
2022/06/02 08:39:19;;;;;;;3.10;0.80;;;;;;;-128.00;-1.00;-1.00;100181;1299;1004147;-24
2022/06/02 08:41:52;;;;;;;1.20;0.30;;;;;;;-128.00;-1.00;-1.00;100095;1299;1003236;-29
2022/06/02 08:44:28;;;;;;;0.60;0.30;;;;;;;-128.00;-1.00;-1.00;100177;1298;1003846;-25
2022/06/02 08:47:06;;;;;;;1.00;0.40;;;;;;;-128.00;-1.00;-1.00;100146;1299;1004003;-29
2022/06/02 08:49:42;;;;;;;2.10;0.50;;;;;;;-128.00;-1.00;-1.00;100150;1299;1003854;-25
2022/06/02 08:52:18;;;;;;;0.70;0.40;;;;;;;-128.00;-1.00;-1.00;100068;1299;1003751;-25
2022/06/02 08:54:52;;;;;;;3.00;1.00;;;;;;;-128.00;-1.00;-1.00;100124;1298;1004263;-28
2022/06/02 08:57:45;;;;;;;0.30;0.30;;;;;;;-128.00;-1.00;-1.00;100215;1299;1003366;-24
2022/06/02 09:00:33;;;;;;;0.30;0.30;;;;;;;-128.00;-1.00;-1.00;100113;1298;1004428;-28
2022/06/02 09:03:26;;;;;;;1.60;0.60;;;;;;;-128.00;-1.00;-1.00;100127;1299;1004641;-27
2022/06/02 09:06:03;;;;;;;1.20;0.50;;;;;;;-128.00;-1.00;-1.00;100167;1299;1003756;-29
2022/06/02 09:08:36;;;;;;;0.70;0.40;;;;;;;-128.00;-1.00;-1.00;100184;1299;1003344;-28
2022/06/02 09:11:11;;;;;;;;;;;;;;;-128.00;-1.00;-1.00;100184;1299;1003845;-27
2022/06/02 09:13:43;;;;;;;16.40;0.50;;;;;;;-128.00;-1.00;-1.00;100115;1299;1002879;-28
2022/06/02 09:16:19;;;;;;;4.20;0.70;;;;;;;-128.00;-1.00;-1.00;100170;1298;1003716;-28
2022/06/02 09:19:01;;;;;;;0.50;0.30;;;;;;;-128.00;-1.00;-1.00;100137;1299;1004490;-26
2022/06/02 09:21:37;;;;;;;0.80;0.30;;;;;;;-128.00;-1.00;-1.00;100084;1299;1004010;-26
2022/06/02 09:24:07;;;;;;;1.90;0.40;;;;;;;-128.00;-1.00;-1.00;100176;1299;1003438;-26
2022/06/02 09:26:41;;;;;;;0.80;0.30;;;;;;;-128.00;-1.00;-1.00;100071;1298;1003384;-30
2022/06/02 09:29:19;;;;;;;0.70;0.60;;;;;;;-128.00;-1.00;-1.00;100221;1299;1003832;-28
2022/06/02 09:31:55;;;;;;;0.90;0.80;;;;;;;-128.00;-1.00;-1.00;100147;1299;1003398;-24
2022/06/02 09:34:29;;;;;;;2.60;1.20;;;;;;;-128.00;-1.00;-1.00;100011;1299;1004326;-28
2022/06/02 09:37:02;;;;;;;1.50;0.90;;;;;;;-128.00;-1.00;-1.00;100156;1299;1003124;-24
2022/06/02 09:39:39;;;;;;;1.50;0.60;;;;;;;-128.00;-1.00;-1.00;100104;1299;1004106;-28
2022/06/02 09:42:16;;;;;;;0.60;0.40;;;;;;;-128.00;-1.00;-1.00;100138;1298;1003857;-28
2022/06/02 09:44:47;;;;;;;0.70;0.40;;;;;;;-128.00;-1.00;-1.00;100169;1299;1005112;-25
2022/06/02 09:47:23;;;;;;;1.20;0.50;;;;;;;-128.00;-1.00;-1.00;100094;1299;1002808;-28
2022/06/02 09:49:56;;;;;;;0.80;0.40;;;;;;;-128.00;-1.00;-1.00;100140;1298;1004395;-24
2022/06/02 09:52:32;;;;;;;4.20;0.50;;;;;;;-128.00;-1.00;-1.00;100186;1299;1003875;-28
2022/06/02 09:55:06;;;;;;;1.70;0.60;;;;;;;-128.00;-1.00;-1.00;100182;1299;1003507;-28
2022/06/02 10:00:18;;;;;;;1.10;0.70;;;;;;;-128.00;-1.00;-1.00;100136;1299;1003123;-24
2022/06/02 10:02:56;;;;;;;1.00;0.50;;;;;;;-128.00;-1.00;-1.00;100122;1299;1004223;-28
2022/06/02 10:05:46;;;;;;;0.70;0.40;;;;;;;-128.00;-1.00;-1.00;100219;1299;1003601;-24
2022/06/02 10:08:19;;;;;;;1.70;1.00;;;;;;;-128.00;-1.00;-1.00;100174;1299;1004409;-24
2022/06/02 10:10:57;;;;;;;2.20;0.60;;;;;;;-128.00;-1.00;-1.00;100256;1299;1003803;-30
2022/06/02 10:13:32;;;;;;;8.50;1.00;;;;;;;-128.00;-1.00;-1.00;100075;1299;1004891;-30
2022/06/02 10:16:08;;;;;;;0.50;0.40;;;;;;;-128.00;-1.00;-1.00;100153;1299;1004116;-24
2022/06/02 10:18:42;;;;;;;4.80;0.50;;;;;;;-128.00;-1.00;-1.00;100152;1299;1004698;-28
2022/06/02 10:21:16;;;;;;;2.40;0.60;;;;;;;-128.00;-1.00;-1.00;100129;1298;1004066;-24
2022/06/02 10:23:50;;;;;;;1.20;0.70;;;;;;;-128.00;-1.00;-1.00;100150;1299;1003534;-24
2022/06/02 10:26:23;;;;;;;1.60;0.90;;;;;;;-128.00;-1.00;-1.00;100167;1299;1003397;-29
2022/06/02 10:28:59;;;;;;;0.90;0.80;;;;;;;-128.00;-1.00;-1.00;100154;1299;1003230;-24
2022/06/02 10:31:46;;;;;;;1.00;0.80;;;;;;;-128.00;-1.00;-1.00;100146;1299;1003679;-24
2022/06/02 10:34:33;;;;;;;1.00;0.80;;;;;;;-128.00;-1.00;-1.00;100095;1299;1003220;-28
2022/06/02 10:37:14;;;;;;;1.20;1.00;;;;;;;-128.00;-1.00;-1.00;100245;1299;1003603;-24
2022/06/02 10:39:42;;;;;;;1.00;0.70;;;;;;;-128.00;-1.00;-1.00;100141;1299;1005178;-28
2022/06/02 10:42:23;;;;;;;2.10;0.50;;;;;;;-128.00;-1.00;-1.00;100219;1299;1004330;-23
2022/06/02 10:44:59;;;;;;;0.50;0.40;;;;;;;-128.00;-1.00;-1.00;100156;1299;1004339;-24
2022/06/02 10:47:34;;;;;;;0.30;0.30;;;;;;;-128.00;-1.00;-1.00;100159;1299;1003645;-27
2022/06/02 10:50:08;;;;;;;1.00;0.80;;;;;;;-128.00;-1.00;-1.00;100169;1299;1003705;-24
2022/06/02 10:52:49;;;;;;;0.90;0.60;;;;;;;-128.00;-1.00;-1.00;100164;1299;1003025;-28
2022/06/02 10:55:29;;;;;;;1.00;0.60;;;;;;;-128.00;-1.00;-1.00;100157;1299;1004432;-24
2022/06/02 10:58:22;;;;;;;0.70;0.30;;;;;;;-128.00;-1.00;-1.00;100115;1299;1004334;-28
2022/06/02 11:01:09;;;;;;;0.70;0.70;;;;;;;-128.00;-1.00;-1.00;100111;1299;1002848;-26
2022/06/02 11:04:09;;;;;;;1.10;0.50;;;;;;;-128.00;-1.00;-1.00;100203;1299;1003105;-24
2022/06/02 11:06:45;;;;;;;0.70;0.50;;;;;;;-128.00;-1.00;-1.00;100098;1299;1003484;-28
2022/06/02 11:09:22;;;;;;;0.90;0.70;;;;;;;-128.00;-1.00;-1.00;100184;1299;1003484;-28
2022/06/02 11:12:23;;;;;;;1.10;0.70;;;;;;;-128.00;-1.00;-1.00;100121;1299;1003953;-24
2022/06/02 11:15:01;;;;;;;0.50;0.40;;;;;;;-128.00;-1.00;-1.00;100127;1299;1003444;-24
2022/06/02 11:17:35;;;;;;;0.60;0.50;;;;;;;-128.00;-1.00;-1.00;100112;1299;1003660;-28
2022/06/02 11:20:15;;;;;;;0.30;0.30;;;;;;;-128.00;-1.00;-1.00;100177;1299;1003197;-24
2022/06/02 11:22:52;;;;;;;0.90;0.30;;;;;;;-128.00;-1.00;-1.00;100211;1299;1004316;-27
2022/06/02 11:25:26;;;;;;;3.10;0.60;;;;;;;-128.00;-1.00;-1.00;100139;1299;1003910;-28
2022/06/02 11:28:22;;;;;;;0.80;0.30;;;;;;;-128.00;-1.00;-1.00;100186;1299;1004586;-28
2022/06/02 11:30:51;;;;;;;1.30;0.60;;;;;;;-128.00;-1.00;-1.00;100176;1299;1004591;-28
2022/06/02 11:33:26;;;;;;;0.30;0.30;;;;;;;-128.00;-1.00;-1.00;100146;1299;1005140;-28
2022/06/02 11:35:57;;;;;;;0.30;0.30;;;;;;;-128.00;-1.00;-1.00;100147;1298;1003759;-24
2022/06/02 11:38:38;;;;;;;0.90;0.60;;;;;;;-128.00;-1.00;-1.00;100147;1299;1003578;-24
2022/06/02 11:41:07;;;;;;;0.90;0.50;;;;;;;-128.00;-1.00;-1.00;100157;1299;1004382;-24
2022/06/02 11:43:39;;;;;;;0.90;0.60;;;;;;;-128.00;-1.00;-1.00;100113;1299;1003799;-28
2022/06/02 11:46:11;;;;;;;1.10;0.60;;;;;;;-128.00;-1.00;-1.00;100142;1299;1004444;-24
2022/06/02 11:49:04;;;;;;;1.40;0.60;;;;;;;-128.00;-1.00;-1.00;100224;1299;1003478;-24
2022/06/02 11:51:58;;;;;;;0.50;0.50;;;;;;;-128.00;-1.00;-1.00;100201;1299;1004301;-28
2022/06/02 11:54:35;;;;;;;1.30;0.40;;;;;;;-128.00;-1.00;-1.00;100161;1299;1003322;-28
2022/06/02 11:57:09;;;;;;;1.10;0.50;;;;;;;-128.00;-1.00;-1.00;100192;1299;1004278;-28
2022/06/02 11:59:48;;;;;;;0.70;0.50;;;;;;;-128.00;-1.00;-1.00;100212;1299;1004386;-28
2022/06/02 12:02:25;;;;;;;0.70;0.70;;;;;;;-128.00;-1.00;-1.00;100171;1296;1004539;-24
2022/06/02 12:04:59;;;;;;;0.70;0.50;;;;;;;-128.00;-1.00;-1.00;100174;1299;1003876;-24
2022/06/02 12:07:49;;;;;;;1.20;0.80;;;;;;;-128.00;-1.00;-1.00;100217;1297;1002912;-24
2022/06/02 12:10:19;;;;;;;1.90;0.30;;;;;;;-128.00;-1.00;-1.00;100318;1299;1003830;-28